Time;durP1;ratioP1;P1;durP2;ratioP2;P2;SDS_P1;SDS_P2;PMS_P1;PMS_P2;Temp;Humidity;BMP_temperature;BMP_pressure;BME280_temperature;BME280_humidity;BME280_pressure;Samples;Min_cycle;Max_cycle;Signal;HPM_P1;HPM_P2
2023/04/14 00:00:33;;;;;;;;;;;;;;;9.10;47.53;99830.13;4950642;28;6771;-78
2023/04/14 00:03:00;;;;;;;;;;;;;;;9.09;47.52;99832.63;4948302;28;6800;-78
2023/04/14 00:05:33;;;;;;;;;;;;;;;9.09;48.12;99832.63;4969196;28;6933;-78
2023/04/14 00:08:00;;;;;;;;;;;;;;;9.09;47.64;99830.94;4947933;28;8146;-78
2023/04/14 00:10:26;;;;;;;;;;;;;;;9.09;48.15;99830.94;4970015;28;6840;-78
2023/04/14 00:12:54;;;;;;;;;;;;;;;9.09;47.51;99830.09;4943015;28;6983;-78
2023/04/14 00:15:20;;;;;;;;;;;;;;;9.07;48.02;99824.88;4940310;28;6928;-78
2023/04/14 00:17:46;;;;;;;;;;;;;;;9.06;47.33;99825.69;4953994;28;7440;-78
2023/04/14 00:20:12;;;;;;;;;;;;;;;9.06;48.06;99822.25;4970825;28;6772;-78
2023/04/14 00:22:37;;;;;;;;;;;;;;;9.07;47.77;99829.09;4934355;28;7780;-78
2023/04/14 00:25:04;;;;;;;;;;;;;;;9.09;48.64;99827.53;4944864;28;7024;-78
2023/04/14 00:27:30;;;;;;;;;;;;;;;9.12;47.84;99828.50;4952561;28;7150;-78
2023/04/14 00:29:56;;;;;;;;;;;;;;;9.16;47.81;99825.31;4948400;28;6999;-78
2023/04/14 00:32:21;;;;;;;;;;;;;;;9.19;47.83;99826.22;4950497;28;6922;-78
2023/04/14 00:34:47;;;;;;;;;;;;;;;9.21;48.57;99824.63;4954949;28;7320;-78
2023/04/14 00:37:13;;;;;;;;;;;;;;;9.24;47.62;99837.56;4946124;28;6949;-78
2023/04/14 00:39:38;;;;;;;;;;;;;;;9.25;48.28;99832.50;4967478;28;6844;-78
2023/04/14 00:42:04;;;;;;;;;;;;;;;9.26;48.52;99830.81;4954525;28;6776;-78
2023/04/14 00:44:30;;;;;;;;;;;;;;;9.27;48.15;99830.91;4953705;28;6992;-78
2023/04/14 00:46:58;;;;;;;;;;;;;;;9.26;47.98;99829.13;4934925;28;6951;-76
2023/04/14 00:49:24;;;;;;;;;;;;;;;9.23;48.52;99829.00;4967205;28;6823;-76
2023/04/14 00:51:51;;;;;;;;;;;;;;;9.20;47.90;99828.88;4953996;28;6812;-77
2023/04/14 00:54:18;;;;;;;;;;;;;;;9.13;48.07;99837.97;4947682;28;7698;-76
2023/04/14 00:56:46;;;;;;;;;;;;;;;9.07;48.21;99842.78;4954646;28;6961;-76
2023/04/14 00:59:13;;;;;;;;;;;;;;;9.02;48.09;99847.69;4946418;28;7066;-76
2023/04/14 01:01:39;;;;;;;;;;;;;;;8.98;48.85;99842.38;4956480;28;6796;-76
2023/04/14 01:04:05;;;;;;;;;;;;;;;8.93;48.28;99842.16;4977393;28;7016;-76
2023/04/14 01:06:31;;;;;;;;;;;;;;;8.92;48.86;99845.53;4975272;28;7236;-76
2023/04/14 01:08:58;;;;;;;;;;;;;;;8.90;48.54;99852.25;4957372;28;6923;-77
2023/04/14 01:11:49;;;;;;;;;;;;;;;8.85;49.24;99849.47;4973638;28;8816;-77
2023/04/14 01:14:47;;;;;;;;;;;;;;;8.81;48.90;99855.25;4969872;28;7668;-76
2023/04/14 01:17:49;;;;;;;;;;;;;;;8.78;49.46;99859.31;4937745;28;7261;-76
2023/04/14 01:20:36;;;;;;;;;;;;;;;8.76;49.02;99861.81;4970116;28;7073;-76
2023/04/14 01:23:38;;;;;;;;;;;;;;;8.72;49.17;99873.59;4973776;28;6998;-76
2023/04/14 01:26:09;;;;;;;;;;;;;;;8.70;49.49;99864.09;4913844;28;7109;-76
2023/04/14 01:29:11;;;;;;;;;;;;;;;8.67;48.53;99858.84;4975054;28;7053;-76
2023/04/14 01:31:49;;;;;;;;;;;;;;;8.61;48.81;99867.97;4968501;28;7015;-77
2023/04/14 01:34:42;;;;;;;;;;;;;;;8.56;48.35;99866.88;4978843;28;6788;-77
2023/04/14 01:37:15;;;;;;;;;;;;;;;8.50;49.76;99858.88;4965391;28;6876;-77
2023/04/14 01:39:50;;;;;;;;;;;;;;;8.47;49.21;99861.28;4959139;28;6807;-77
2023/04/14 01:42:23;;;;;;;;;;;;;;;8.43;49.54;99867.94;4938452;28;7466;-77
2023/04/14 01:44:57;;;;;;;;;;;;;;;8.41;49.28;99861.88;4942742;28;7034;-76
2023/04/14 01:47:25;;;;;;;;;;;;;;;8.39;49.59;99868.56;4935394;28;6987;-77
2023/04/14 01:49:53;;;;;;;;;;;;;;;8.37;49.70;99870.19;4958179;28;7049;-76
2023/04/14 01:52:21;;;;;;;;;;;;;;;8.37;49.16;99882.09;4958862;28;7225;-77
2023/04/14 01:54:51;;;;;;;;;;;;;;;8.39;50.56;99878.78;4974840;28;7122;-76
2023/04/14 01:57:21;;;;;;;;;;;;;;;8.42;49.92;99883.16;4981534;28;6816;-76
2023/04/14 01:59:53;;;;;;;;;;;;;;;8.46;50.36;99887.66;4972011;28;6858;-77
2023/04/14 02:02:23;;;;;;;;;;;;;;;8.48;50.21;99888.59;4937486;28;7229;-75
2023/04/14 02:04:50;;;;;;;;;;;;;;;8.49;49.56;99887.78;4963069;28;6963;-73
2023/04/14 02:07:20;;;;;;;;;;;;;;;8.47;49.29;99887.69;4952456;28;6800;-75
2023/04/14 02:09:49;;;;;;;;;;;;;;;8.45;49.83;99891.88;4955291;28;7136;-73
2023/04/14 02:12:19;;;;;;;;;;;;;;;8.42;49.18;99894.28;4961638;28;7021;-79
2023/04/14 02:14:47;;;;;;;;;;;;;;;8.38;50.09;99897.47;4956633;28;7538;-77
2023/04/14 02:17:16;;;;;;;;;;;;;;;8.32;49.81;99892.94;4963475;28;6846;-76
2023/04/14 02:19:44;;;;;;;;;;;;;;;8.28;50.10;99890.16;4954577;28;8631;-77
2023/04/14 02:22:10;;;;;;;;;;;;;;;8.24;49.13;99895.94;4966470;28;6788;-77
2023/04/14 02:24:35;;;;;;;;;;;;;;;8.19;49.94;99898.25;4954574;28;6788;-77
2023/04/14 02:27:14;;;;;;;;;;;;;;;8.14;50.06;99895.47;4952550;28;7143;-77
2023/04/14 02:29:54;;;;;;;;;;;;;;;8.11;50.71;99890.22;4966624;28;6796;-76
2023/04/14 02:32:27;;;;;;;;;;;;;;;8.10;49.75;99891.00;4959728;28;6990;-76
2023/04/14 02:35:03;;;;;;;;;;;;;;;8.10;50.38;99895.25;4950817;28;6876;-76
2023/04/14 02:37:41;;;;;;;;;;;;;;;8.10;50.95;99898.66;4964276;28;6807;-77
2023/04/14 02:40:20;;;;;;;;;;;;;;;8.08;50.97;99890.06;4956115;28;10209;-77
2023/04/14 02:42:56;;;;;;;;;;;;;;;8.05;50.97;99892.47;4954397;28;7012;-77
2023/04/14 02:45:27;;;;;;;;;;;;;;;8.03;51.49;99899.19;4948689;28;10212;-77
2023/04/14 02:48:01;;;;;;;;;;;;;;;8.01;50.96;99896.53;4966751;28;7003;-77
2023/04/14 02:50:31;;;;;;;;;;;;;;;8.04;50.86;99893.28;4956249;28;7102;-77
2023/04/14 02:52:59;;;;;;;;;;;;;;;8.08;50.96;99892.59;4965085;28;8643;-77
2023/04/14 02:55:27;;;;;;;;;;;;;;;8.12;50.64;99889.44;4934712;28;6995;-77
2023/04/14 02:57:54;;;;;;;;;;;;;;;8.14;51.66;99895.47;4936551;28;6980;-77
2023/04/14 03:00:22;;;;;;;;;;;;;;;8.16;50.79;99888.75;4967771;28;7214;-77
2023/04/14 03:02:51;;;;;;;;;;;;;;;8.20;51.29;99898.31;4962918;28;7940;-77
2023/04/14 03:05:17;;;;;;;;;;;;;;;8.23;50.88;99899.28;4954050;28;6986;-77
2023/04/14 03:07:45;;;;;;;;;;;;;;;8.24;50.90;99901.03;4965620;28;9256;-77
2023/04/14 03:10:11;;;;;;;;;;;;;;;8.25;51.65;99910.44;4963314;28;8750;-77
2023/04/14 03:12:40;;;;;;;;;;;;;;;8.27;51.53;99908.84;4953130;28;6953;-77
2023/04/14 03:15:07;;;;;;;;;;;;;;;8.31;51.59;99908.22;4944376;28;7250;-77
2023/04/14 03:17:35;;;;;;;;;;;;;;;8.38;51.99;99906.81;4961791;28;7444;-77
2023/04/14 03:20:02;;;;;;;;;;;;;;;8.42;52.02;99903.59;4968429;28;6967;-77
2023/04/14 03:22:29;;;;;;;;;;;;;;;8.45;51.04;99902.06;4944925;28;6975;-77
2023/04/14 03:24:57;;;;;;;;;;;;;;;8.46;51.48;99901.28;4956013;28;6788;-76
2023/04/14 03:27:28;;;;;;;;;;;;;;;8.46;50.70;99901.28;4957845;28;7329;-76
2023/04/14 03:30:00;;;;;;;;;;;;;;;8.44;50.64;99902.88;4946710;28;6990;-76
2023/04/14 03:32:35;;;;;;;;;;;;;;;8.39;50.70;99896.66;4943632;28;7235;-77
2023/04/14 03:35:02;;;;;;;;;;;;;;;8.35;51.51;99897.31;4960265;28;8650;-77
2023/04/14 03:37:34;;;;;;;;;;;;;;;8.29;51.12;99897.00;4939374;28;6838;-76
2023/04/14 03:40:04;;;;;;;;;;;;;;;8.23;51.76;99897.59;4977195;28;8114;-76
2023/04/14 03:42:31;;;;;;;;;;;;;;;8.19;50.78;99911.03;4937465;28;10315;-76
2023/04/14 03:44:59;;;;;;;;;;;;;;;8.14;50.92;99900.59;4955410;28;6943;-76
2023/04/14 03:47:29;;;;;;;;;;;;;;;8.09;51.09;99907.13;4962524;28;7036;-76
2023/04/14 03:50:00;;;;;;;;;;;;;;;8.06;51.11;99906.97;4959073;28;7905;-77
2023/04/14 03:52:32;;;;;;;;;;;;;;;8.02;51.19;99905.09;4941907;28;8384;-77
2023/04/14 03:55:05;;;;;;;;;;;;;;;7.98;51.49;99898.94;4951003;28;6816;-76
2023/04/14 03:57:32;;;;;;;;;;;;;;;7.95;51.55;99903.88;4933827;28;7160;-76
2023/04/14 04:00:03;;;;;;;;;;;;;;;7.89;51.53;99901.88;4933659;28;7311;-76
2023/04/14 04:02:30;;;;;;;;;;;;;;;7.83;51.28;99901.59;4966078;28;7827;-76
2023/04/14 04:04:58;;;;;;;;;;;;;;;7.79;50.94;99902.22;4963313;28;7604;-76
2023/04/14 04:07:27;;;;;;;;;;;;;;;7.73;51.79;99905.34;4974168;28;7395;-77
2023/04/14 04:09:55;;;;;;;;;;;;;;;7.67;50.81;99910.09;4970169;28;7924;-82
2023/04/14 04:12:24;;;;;;;;;;;;;;;7.61;51.35;99910.66;4941854;28;8487;-82
2023/04/14 04:14:50;;;;;;;;;;;;;;;7.52;51.34;99904.22;4972550;28;6864;-81
2023/04/14 04:17:21;;;;;;;;;;;;;;;7.45;51.79;99909.00;4948151;28;7044;-79
2023/04/14 04:19:49;;;;;;;;;;;;;;;7.40;51.05;99913.00;4951048;28;6824;-82
2023/04/14 04:22:19;;;;;;;;;;;;;;;7.33;52.04;99914.31;4955596;28;6785;-82
2023/04/14 04:24:46;;;;;;;;;;;;;;;7.29;52.25;99925.16;4955852;28;7444;-79
2023/04/14 04:27:12;;;;;;;;;;;;;;;7.27;52.06;99914.00;4961222;28;6998;-82
2023/04/14 04:29:38;;;;;;;;;;;;;;;7.28;52.39;99914.88;4962012;28;8705;-82
2023/04/14 04:32:05;;;;;;;;;;;;;;;7.30;53.08;99919.25;4960652;28;7877;-80
2023/04/14 04:34:32;;;;;;;;;;;;;;;7.29;52.58;99920.06;4965353;28;7206;-83
2023/04/14 04:37:02;;;;;;;;;;;;;;;7.29;52.87;99926.81;4963287;28;6796;-81
2023/04/14 04:39:29;;;;;;;;;;;;;;;7.24;52.23;99924.03;4946544;28;6994;-80
2023/04/14 04:42:06;;;;;;;;;;;;;;;7.22;53.03;99926.50;4938284;28;7212;-79
2023/04/14 04:44:34;;;;;;;;;;;;;;;7.19;52.99;99923.78;4951783;28;8444;-82
2023/04/14 04:47:00;;;;;;;;;;;;;;;7.17;52.54;99919.41;4963264;28;6824;-80
2023/04/14 04:49:27;;;;;;;;;;;;;;;7.14;53.04;99917.56;4974694;28;7071;-80
2023/04/14 04:51:53;;;;;;;;;;;;;;;7.12;52.69;99911.50;4969282;28;7013;-79
2023/04/14 04:54:19;;;;;;;;;;;;;;;7.13;52.47;99914.94;4953614;28;6848;-82
2023/04/14 04:56:45;;;;;;;;;;;;;;;7.11;53.04;99912.31;4955031;28;6804;-82
2023/04/14 04:59:11;;;;;;;;;;;;;;;7.09;52.95;99914.78;4953486;28;7221;-83
2023/04/14 05:01:37;;;;;;;;;;;;;;;7.11;53.15;99911.41;4942791;28;7237;-78
2023/04/14 05:04:02;;;;;;;;;;;;;;;7.11;52.83;99919.06;4954692;28;7278;-83
2023/04/14 05:06:28;;;;;;;;;;;;;;;7.12;53.03;99918.28;4960714;28;6980;-80
2023/04/14 05:08:54;;;;;;;;;;;;;;;7.12;53.40;99921.72;4960543;28;6953;-80
2023/04/14 05:11:20;;;;;;;;;;;;;;;7.13;52.91;99925.13;4956284;28;7288;-82
2023/04/14 05:13:47;;;;;;;;;;;;;;;7.15;53.68;99923.56;4960329;28;7102;-80
2023/04/14 05:16:13;;;;;;;;;;;;;;;7.18;53.74;99928.81;4978705;28;6792;-78
2023/04/14 05:18:41;;;;;;;;;;;;;;;7.19;53.47;99930.56;4960778;28;7013;-81
2023/04/14 05:21:08;;;;;;;;;;;;;;;7.22;53.19;99926.50;4974151;28;6804;-81
2023/04/14 05:23:37;;;;;;;;;;;;;;;7.30;54.12;99928.59;4969835;28;7055;-76
2023/04/14 05:26:04;;;;;;;;;;;;;;;7.38;53.63;99924.75;4977369;28;7176;-80
2023/04/14 05:28:32;;;;;;;;;;;;;;;7.47;53.83;99917.59;4952882;28;8408;-79
2023/04/14 05:30:57;;;;;;;;;;;;;;;7.59;54.78;99919.06;4956538;28;7043;-82
2023/04/14 05:33:24;;;;;;;;;;;;;;;7.72;55.08;99928.22;4976441;28;7042;-79
2023/04/14 05:35:50;;;;;;;;;;;;;;;7.86;54.09;99934.91;4946558;28;8545;-80
2023/04/14 05:38:17;;;;;;;;;;;;;;;7.96;54.64;99930.28;4980010;23;7381;-83
2023/04/14 05:40:43;;;;;;;;;;;;;;;8.05;53.76;99928.19;4953663;28;7245;-84
2023/04/14 05:43:09;;;;;;;;;;;;;;;8.12;53.88;99920.06;4968213;28;6899;-83
2023/04/14 05:45:34;;;;;;;;;;;;;;;8.19;54.49;99924.66;4953706;28;6776;-83
2023/04/14 05:48:00;;;;;;;;;;;;;;;8.28;53.96;99924.25;4949388;28;8346;-83
2023/04/14 05:50:26;;;;;;;;;;;;;;;8.34;54.52;99921.13;4939454;28;8347;-83
2023/04/14 05:52:52;;;;;;;;;;;;;;;8.43;54.64;99926.66;4955070;28;6990;-83
2023/04/14 05:55:18;;;;;;;;;;;;;;;8.52;54.24;99918.59;4950470;28;6863;-83
2023/04/14 05:57:44;;;;;;;;;;;;;;;8.63;54.36;99921.69;4951392;28;8671;-84
2023/04/14 06:00:11;;;;;;;;;;;;;;;8.77;54.65;99918.91;4959850;28;8777;-82
2023/04/14 06:02:41;;;;;;;;;;;;;;;8.92;55.18;99922.19;4931206;28;8595;-81
2023/04/14 06:05:07;;;;;;;;;;;;;;;9.06;54.19;99919.41;4935238;28;8642;-81
2023/04/14 06:07:34;;;;;;;;;;;;;;;9.20;54.66;99922.59;4934903;28;8571;-84
2023/04/14 06:10:00;;;;;;;;;;;;;;;9.32;53.93;99920.63;4931912;28;8526;-87
2023/04/14 06:12:25;;;;;;;;;;;;;;;9.45;54.28;99922.00;4935883;28;8866;-85
2023/04/14 06:14:51;;;;;;;;;;;;;;;9.57;54.54;99917.47;4936809;28;6964;-85
2023/04/14 06:17:17;;;;;;;;;;;;;;;9.69;54.45;99929.91;4935531;28;7213;-85
2023/04/14 06:19:42;;;;;;;;;;;;;;;9.80;53.98;99920.16;4937731;28;8689;-83
2023/04/14 06:22:08;;;;;;;;;;;;;;;9.93;54.17;99921.56;4939775;28;6780;-86
2023/04/14 06:24:34;;;;;;;;;;;;;;;10.05;54.63;99913.53;4956467;28;6971;-84
2023/04/14 06:27:02;;;;;;;;;;;;;;;10.18;54.25;99906.34;4926415;28;8448;-85
2023/04/14 06:29:29;;;;;;;;;;;;;;;10.31;53.68;99913.72;4938094;28;6788;-85
2023/04/14 06:31:55;;;;;;;;;;;;;;;10.38;53.80;99913.16;4933151;28;8301;-84
2023/04/14 06:34:21;;;;;;;;;;;;;;;10.49;54.25;99905.06;4937553;28;7176;-86
2023/04/14 06:36:46;;;;;;;;;;;;;;;10.62;53.41;99902.22;4955075;28;8350;-84
2023/04/14 06:39:12;;;;;;;;;;;;;;;10.74;53.30;99903.50;4939674;28;6942;-84
2023/04/14 06:41:38;;;;;;;;;;;;;;;10.84;53.88;99901.34;4936336;28;8910;-86
2023/04/14 06:44:03;;;;;;;;;;;;;;;10.97;53.61;99905.25;4920652;28;8451;-84
2023/04/14 06:46:29;;;;;;;;;;;;;;;11.08;53.38;99897.97;4922710;28;8599;-84
2023/04/14 06:48:55;;;;;;;;;;;;;;;11.18;53.45;99894.06;4927467;28;8604;-84
2023/04/14 06:51:20;;;;;;;;;;;;;;;11.30;53.13;99897.88;4938414;28;6942;-83
2023/04/14 06:53:46;;;;;;;;;;;;;;;11.37;52.74;99899.88;4933817;28;6947;-84
2023/04/14 06:56:12;;;;;;;;;;;;;;;11.45;52.61;99898.47;4936256;28;6852;-84
2023/04/14 06:58:39;;;;;;;;;;;;;;;11.52;52.37;99887.59;4929439;28;8749;-83
2023/04/14 07:01:05;;;;;;;;;;;;;;;11.59;52.19;99892.94;4934180;28;7023;-84
2023/04/14 07:03:31;;;;;;;;;;;;;;;11.65;51.85;99888.03;4938766;28;8489;-84
2023/04/14 07:06:10;;;;;;;;;;;;;;;11.73;51.90;99888.28;4938912;28;6933;-84
2023/04/14 07:08:39;;;;;;;;;;;;;;;11.78;51.96;99887.66;4934635;28;7040;-84
2023/04/14 07:11:09;;;;;;;;;;;;;;;11.88;51.66;99893.09;4945835;28;7250;-84
2023/04/14 07:13:36;;;;;;;;;;;;;;;11.95;51.45;99885.66;4952976;28;7155;-84
2023/04/14 07:16:05;;;;;;;;;;;;;;;12.04;51.66;99874.84;4927549;28;8754;-83
2023/04/14 07:18:31;;;;;;;;;;;;;;;12.15;51.44;99876.91;4923757;28;8428;-84
2023/04/14 07:20:58;;;;;;;;;;;;;;;12.27;51.55;99873.88;4927882;28;8967;-83
2023/04/14 07:23:24;;;;;;;;;;;;;;;12.40;52.27;99862.28;4935979;28;6800;-83
2023/04/14 07:25:51;;;;;;;;;;;;;;;12.53;51.23;99863.56;4935676;28;8422;-84
2023/04/14 07:28:18;;;;;;;;;;;;;;;12.66;51.08;99854.53;4938335;28;6972;-84
2023/04/14 07:30:44;;;;;;;;;;;;;;;12.76;51.48;99859.13;4955360;28;6828;-85
2023/04/14 07:33:11;;;;;;;;;;;;;;;12.90;50.62;99856.97;4938757;28;7160;-84
2023/04/14 07:35:37;;;;;;;;;;;;;;;13.01;50.45;99868.44;4936399;28;6796;-84
2023/04/14 07:38:03;;;;;;;;;;;;;;;13.10;49.64;99865.25;4923252;28;8261;-84
2023/04/14 07:40:29;;;;;;;;;;;;;;;13.19;50.26;99862.09;4928361;28;8415;-84
2023/04/14 07:42:56;;;;;;;;;;;;;;;13.26;50.29;99858.00;4941167;28;8638;-85
2023/04/14 07:45:22;;;;;;;;;;;;;;;13.35;49.05;99863.41;4919387;28;6980;-86
2023/04/14 07:47:48;;;;;;;;;;;;;;;13.44;49.07;99852.47;4933707;28;7302;-85
2023/04/14 07:50:14;;;;;;;;;;;;;;;13.55;49.52;99861.41;4923207;28;8484;-85
2023/04/14 07:52:40;;;;;;;;;;;;;;;13.65;48.48;99854.81;4941162;28;8937;-86
2023/04/14 07:55:06;;;;;;;;;;;;;;;13.77;48.44;99858.53;4936473;28;8427;-85
2023/04/14 07:57:35;;;;;;;;;;;;;;;13.90;48.46;99860.59;4938959;28;8460;-86
2023/04/14 08:00:02;;;;;;;;;;;;;;;13.99;48.15;99858.25;4953487;28;8510;-87
2023/04/14 08:02:28;;;;;;;;;;;;;;;14.07;46.99;99855.88;4935321;28;7149;-86
2023/04/14 08:04:54;;;;;;;;;;;;;;;14.19;46.98;99860.44;4950948;28;7184;-87
2023/04/14 08:07:19;;;;;;;;;;;;;;;14.26;46.70;99854.59;4936998;28;6957;-87
2023/04/14 08:09:46;;;;;;;;;;;;;;;14.32;46.54;99856.47;4938511;28;8615;-86
2023/04/14 08:12:12;;;;;;;;;;;;;;;14.39;46.43;99849.72;4920684;28;8420;-87
2023/04/14 08:14:37;;;;;;;;;;;;;;;14.52;46.13;99858.63;4915977;28;8428;-87
2023/04/14 08:17:04;;;;;;;;;;;;;;;14.63;45.85;99851.16;4950770;28;6933;-87
2023/04/14 08:19:32;;;;;;;;;;;;;;;14.71;45.29;99850.47;4919456;28;8552;-86
2023/04/14 08:21:58;;;;;;;;;;;;;;;14.83;45.59;99849.06;4937226;28;6999;-86
2023/04/14 08:24:24;;;;;;;;;;;;;;;14.95;45.36;99848.44;4936239;28;8802;-87
2023/04/14 08:26:49;;;;;;;;;;;;;;;15.05;44.81;99847.78;4922638;29;8366;-86
2023/04/14 08:29:15;;;;;;;;;;;;;;;15.11;43.95;99845.34;4933780;28;6973;-87
2023/04/14 08:31:41;;;;;;;;;;;;;;;15.17;43.53;99854.06;4936119;28;7172;-86
2023/04/14 08:34:06;;;;;;;;;;;;;;;15.23;43.66;99849.91;4937478;28;6939;-87
2023/04/14 08:36:32;;;;;;;;;;;;;;;15.32;43.56;99849.19;4934176;28;7074;-87
2023/04/14 08:38:59;;;;;;;;;;;;;;;15.41;43.49;99849.38;4928164;28;8555;-87
2023/04/14 08:41:27;;;;;;;;;;;;;;;15.52;43.30;99851.28;4936814;28;6816;-86
2023/04/14 08:43:52;;;;;;;;;;;;;;;15.62;42.91;99850.63;4943763;28;8465;-82
2023/04/14 08:46:19;;;;;;;;;;;;;;;15.70;42.70;99850.78;4936182;28;7176;-82
2023/04/14 08:48:47;;;;;;;;;;;;;;;15.76;42.10;99847.44;4933382;28;6784;-82
2023/04/14 08:51:41;;;;;;;;;;;;;;;15.81;41.81;99845.78;4932220;28;7155;-83
2023/04/14 08:54:15;;;;;;;;;;;;;;;15.87;41.76;99843.31;4935100;28;6812;-82
2023/04/14 08:56:43;;;;;;;;;;;;;;;15.94;41.89;99841.75;4951623;28;7189;-83
2023/04/14 08:59:10;;;;;;;;;;;;;;;16.03;41.70;99843.59;4948913;28;8485;-82
2023/04/14 09:01:46;;;;;;;;;;;;;;;16.13;41.13;99834.28;4934945;28;8065;-83
2023/04/14 09:04:13;;;;;;;;;;;;;;;16.24;41.61;99837.91;4923428;28;8644;-83
2023/04/14 09:06:39;;;;;;;;;;;;;;;16.35;41.45;99825.16;4932838;28;6832;-83
2023/04/14 09:09:11;;;;;;;;;;;;;;;16.44;40.83;99817.53;4944043;28;6780;-88
2023/04/14 09:11:37;;;;;;;;;;;;;;;16.57;40.81;99820.28;4938812;28;7195;-88
2023/04/14 09:14:03;;;;;;;;;;;;;;;16.69;40.93;99820.44;4935881;28;7339;-86
2023/04/14 09:16:36;;;;;;;;;;;;;;;16.76;40.45;99811.94;4937761;28;6979;-87
2023/04/14 09:19:03;;;;;;;;;;;;;;;16.85;40.77;99815.50;4933875;28;6872;-85
2023/04/14 09:21:28;;;;;;;;;;;;;;;16.94;40.54;99815.63;4921175;28;8464;-86
2023/04/14 09:23:55;;;;;;;;;;;;;;;17.08;40.33;99805.47;4954714;28;7245;-86
2023/04/14 09:26:21;;;;;;;;;;;;;;;17.19;40.29;99805.56;4926478;29;7056;-86
2023/04/14 09:28:53;;;;;;;;;;;;;;;17.33;40.24;99804.00;4922736;28;8416;-85
2023/04/14 09:31:19;;;;;;;;;;;;;;;17.52;39.96;99792.97;4936603;28;8383;-85
2023/04/14 09:33:51;;;;;;;;;;;;;;;17.73;39.55;99792.31;4926420;28;8873;-85
2023/04/14 09:36:20;;;;;;;;;;;;;;;17.99;39.57;99791.66;4934749;28;6816;-86
2023/04/14 09:38:48;;;;;;;;;;;;;;;18.40;39.43;99783.31;4923641;28;8532;-86
2023/04/14 09:41:24;;;;;;;;;;;;;;;19.03;38.75;99786.25;4935562;29;8461;-86
2023/04/14 09:43:54;;;;;;;;;;;;;;;19.93;37.33;99783.78;4938470;28;6820;-86
2023/04/14 09:46:20;;;;;;;;;;;;;;;20.98;35.54;99776.63;4920299;29;8971;-86
2023/04/14 09:48:54;;;;;;;;;;;;;;;22.01;34.74;99772.44;4935873;28;8466;-86
2023/04/14 09:51:29;;;;;;;;;;;;;;;22.98;33.33;99766.19;4930705;28;8514;-86
2023/04/14 09:54:01;;;;;;;;;;;;;;;23.75;31.29;99760.72;4940195;28;8437;-86
2023/04/14 09:56:27;;;;;;;;;;;;;;;24.24;30.90;99765.16;4942378;28;8531;-86
2023/04/14 09:59:00;;;;;;;;;;;;;;;24.74;30.58;99764.16;4940039;28;6993;-87
2023/04/14 10:01:32;;;;;;;;;;;;;;;25.02;29.50;99753.13;4924373;28;8518;-87
2023/04/14 10:04:00;;;;;;;;;;;;;;;25.24;29.28;99758.72;4930584;28;8512;-86
2023/04/14 10:06:26;;;;;;;;;;;;;;;25.66;28.71;99746.41;4923113;28;8723;-86
2023/04/14 10:08:55;;;;;;;;;;;;;;;26.24;27.57;99743.19;4936509;28;8418;-86
2023/04/14 10:11:26;;;;;;;;;;;;;;;26.87;26.96;99743.13;4945052;28;6800;-86
2023/04/14 10:13:58;;;;;;;;;;;;;;;27.42;25.61;99730.94;4941794;28;8627;-85
2023/04/14 10:16:25;;;;;;;;;;;;;;;27.70;25.85;99735.31;4944575;28;8797;-85
2023/04/14 10:18:56;;;;;;;;;;;;;;;27.98;25.44;99735.25;4925312;28;8515;-85
2023/04/14 10:21:22;;;;;;;;;;;;;;;28.11;24.25;99725.13;4925209;28;8533;-85
2023/04/14 10:23:48;;;;;;;;;;;;;;;28.22;24.26;99722.13;4934567;28;8695;-85
2023/04/14 10:26:14;;;;;;;;;;;;;;;28.45;24.02;99709.91;4920130;28;8714;-85
2023/04/14 10:28:47;;;;;;;;;;;;;;;28.94;23.94;99707.16;4923957;28;9016;-84
2023/04/14 10:31:22;;;;;;;;;;;;;;;29.57;23.30;99697.63;4916343;28;8782;-84
2023/04/14 10:33:48;;;;;;;;;;;;;;;30.05;23.28;99700.88;4937583;28;7109;-84
2023/04/14 10:36:30;;;;;;;;;;;;;;;30.41;22.51;99695.75;4938747;28;8675;-84
2023/04/14 10:39:02;;;;;;;;;;;;;;;30.65;21.58;99693.78;4948444;28;6957;-84
2023/04/14 10:41:43;;;;;;;;;;;;;;;30.80;22.00;99692.19;4934181;28;7354;-82
2023/04/14 10:44:33;;;;;;;;;;;;;;;30.99;21.69;99699.25;4953654;28;8458;-82
2023/04/14 10:47:06;;;;;;;;;;;;;;;31.29;21.42;99686.34;4952842;28;7239;-82
2023/04/14 10:49:40;;;;;;;;;;;;;;;31.51;21.18;99685.25;4948455;28;6808;-84
2023/04/14 10:52:15;;;;;;;;;;;;;;;31.52;20.66;99681.66;4946703;28;7243;-84
2023/04/14 10:55:06;;;;;;;;;;;;;;;31.17;20.26;99677.19;4955506;28;8610;-83
2023/04/14 10:57:38;;;;;;;;;;;;;;;30.23;21.03;99685.13;4935391;28;8526;-83
2023/04/14 11:00:27;;;;;;;;;;;;;;;28.92;21.78;99685.28;4934068;28;8532;-82
2023/04/14 11:03:02;;;;;;;;;;;;;;;27.83;21.80;99678.72;4939594;28;13052;-82
2023/04/14 11:05:28;;;;;;;;;;;;;;;27.02;22.37;99688.41;4940845;28;6808;-83
2023/04/14 11:08:00;;;;;;;;;;;;;;;27.13;22.52;99683.66;4948991;28;8906;-84
2023/04/14 11:10:32;;;;;;;;;;;;;;;27.78;21.96;99680.66;4938042;28;6804;-83
2023/04/14 11:13:04;;;;;;;;;;;;;;;27.94;21.94;99680.13;4937178;28;7200;-82
2023/04/14 11:15:56;;;;;;;;;;;;;;;27.35;21.60;99676.84;4941096;28;8956;-82
2023/04/14 11:18:28;;;;;;;;;;;;;;;26.55;21.65;99675.75;4934808;28;6796;-82
2023/04/14 11:21:12;;;;;;;;;;;;;;;25.77;22.38;99664.78;4933531;28;8396;-82
2023/04/14 11:23:38;;;;;;;;;;;;;;;25.12;22.76;99674.28;4951450;28;6832;-82
2023/04/14 11:26:08;;;;;;;;;;;;;;;24.99;23.19;99673.69;4934385;28;8896;-82
2023/04/14 11:28:37;;;;;;;;;;;;;;;25.40;22.79;99670.94;4925428;28;8472;-82
2023/04/14 11:31:07;;;;;;;;;;;;;;;25.93;23.17;99673.13;4934682;28;6792;-82
2023/04/14 11:33:40;;;;;;;;;;;;;;;26.33;22.63;99665.91;4946126;28;6862;-82
2023/04/14 11:36:08;;;;;;;;;;;;;;;26.81;22.71;99666.22;4924546;28;8649;-82
2023/04/14 11:38:39;;;;;;;;;;;;;;;27.55;22.55;99648.09;4935299;28;6874;-82
2023/04/14 11:41:06;;;;;;;;;;;;;;;28.25;22.18;99650.91;4925574;28;8690;-83
2023/04/14 11:43:31;;;;;;;;;;;;;;;28.77;21.69;99648.94;4936439;28;6800;-83
2023/04/14 11:45:59;;;;;;;;;;;;;;;28.64;20.82;99649.44;4933636;28;8410;-82
2023/04/14 11:48:28;;;;;;;;;;;;;;;27.72;21.51;99650.13;4931754;28;6792;-81
2023/04/14 11:50:55;;;;;;;;;;;;;;;26.69;21.51;99647.31;4926249;28;8407;-81
2023/04/14 11:53:20;;;;;;;;;;;;;;;25.63;22.27;99650.28;4936067;28;8375;-81
2023/04/14 11:55:49;;;;;;;;;;;;;;;24.81;23.27;99654.88;4944246;28;7369;-81
2023/04/14 11:58:29;;;;;;;;;;;;;;;24.39;22.89;99647.88;4919599;28;8607;-81
2023/04/14 12:00:56;;;;;;;;;;;;;;;23.89;23.44;99654.09;4930792;28;8587;-82
2023/04/14 12:03:30;;;;;;;;;;;;;;;23.43;23.59;99646.19;4915227;28;8574;-81
2023/04/14 12:06:00;;;;;;;;;;;;;;;23.05;23.99;99646.78;4930322;28;8778;-81
2023/04/14 12:08:29;;;;;;;;;;;;;;;22.75;24.98;99644.59;4929015;28;6992;-84
2023/04/14 12:10:56;;;;;;;;;;;;;;;22.60;24.86;99638.72;4950230;28;6812;-84
2023/04/14 12:13:23;;;;;;;;;;;;;;;22.37;25.36;99648.56;4931493;28;7207;-84
2023/04/14 12:15:49;;;;;;;;;;;;;;;22.12;25.62;99651.50;4925497;28;7302;-85
2023/04/14 12:18:16;;;;;;;;;;;;;;;21.91;26.38;99654.31;4919946;28;8742;-87
2023/04/14 12:20:54;;;;;;;;;;;;;;;21.75;26.15;99653.59;4947590;28;6812;-87
2023/04/14 12:23:21;;;;;;;;;;;;;;;21.63;26.19;99644.13;4930228;28;6910;-88
2023/04/14 12:25:50;;;;;;;;;;;;;;;21.59;26.68;99657.19;4937291;28;6811;-87
2023/04/14 12:28:27;;;;;;;;;;;;;;;21.53;26.72;99654.63;4940955;28;7162;-87
2023/04/14 12:31:01;;;;;;;;;;;;;;;21.53;26.91;99655.50;4933033;28;7291;-87
2023/04/14 12:33:30;;;;;;;;;;;;;;;21.77;27.20;99645.75;4932187;28;8458;-87
2023/04/14 12:36:20;;;;;;;;;;;;;;;22.65;26.95;99650.84;4933887;28;6959;-88
2023/04/14 12:38:47;;;;;;;;;;;;;;;23.48;25.87;99638.25;4937815;28;8257;-88
2023/04/14 12:41:21;;;;;;;;;;;;;;;23.54;25.27;99634.66;4913420;28;8785;-88
2023/04/14 12:43:47;;;;;;;;;;;;;;;23.30;25.39;99640.28;4952968;28;6808;-88
2023/04/14 12:46:25;;;;;;;;;;;;;;;23.01;25.78;99638.97;4930923;28;6796;-88
2023/04/14 12:48:51;;;;;;;;;;;;;;;22.84;25.97;99630.53;4918554;28;8444;-88
2023/04/14 12:51:19;;;;;;;;;;;;;;;22.97;25.36;99634.69;4949983;28;6986;-88
2023/04/14 12:53:48;;;;;;;;;;;;;;;23.26;25.50;99632.50;4935724;28;7073;-88
2023/04/14 12:56:20;;;;;;;;;;;;;;;23.49;25.64;99623.44;4933598;28;8745;-88
2023/04/14 12:58:47;;;;;;;;;;;;;;;23.56;24.96;99622.41;4931489;28;7259;-88
2023/04/14 13:01:15;;;;;;;;;;;;;;;23.33;25.07;99615.00;4934435;28;7330;-88
2023/04/14 13:03:50;;;;;;;;;;;;;;;23.00;25.63;99615.50;4930427;28;8459;-88
2023/04/14 13:06:22;;;;;;;;;;;;;;;22.74;25.88;99624.59;4936559;28;6801;-89
2023/04/14 13:08:53;;;;;;;;;;;;;;;22.64;25.85;99617.78;4933983;28;7209;-88
2023/04/14 13:11:22;;;;;;;;;;;;;;;22.57;25.71;99623.06;4941280;28;8665;-89
2023/04/14 13:13:49;;;;;;;;;;;;;;;22.54;26.00;99615.28;4950862;28;8637;-89